aviador You're here:

GMFO Decoded Metar

OUJDA in MOROCCO
Report Time2018-05-21 20:00:00
UTC Time2018-05-21 20:40:03
Flight Rules vfr VFR
WindVRB at 06 kt
Visibility9999 m
Phenomena:N/A
Clouds:Few 026 Hf
Few CB 040 Hf
Expected CloudBase > 2,800 ft AGL from Temp-Dew spread
CeilingNone
Temp16°C (ISA +4)
Dew Point09°C (63% RH)
AAT13.6°C
QNH1014 hPa
Density Alt2,146 ft
Elevation1,542 ft
Report Wrong Elevation
Raw Report
GMFO 212000Z VRB06KT 9999 FEW026 FEW040CB 16/09 Q1014 NOSIG=

Extra information for GMFO:More info

Metar Taf Metar & Taf Last 4 Metars F.Rules Stats Wind Profile Meteogram Temp Stats Airport Information Weather charts Add Link Nearby VenuesMetar ALERT Operation Metar Decoded Social comments